Time;durP1;ratioP1;P1;durP2;ratioP2;P2;SDS_P1;SDS_P2;PMS_P1;PMS_P2;Temp;Humidity;BMP_temperature;BMP_pressure;BME280_temperature;BME280_humidity;BME280_pressure;Samples;Min_cycle;Max_cycle;Signal;HPM_P1;HPM_P2
2020/12/11 00:00:59;;;;;;;31.73;17.77;;;5.40;99.90;;;;;;4221447;28;20276;-47
2020/12/11 00:03:00;;;;;;;34.07;18.50;;;5.30;99.90;;;;;;4238691;27;20291;-49
2020/12/11 00:05:04;;;;;;;30.47;16.57;;;5.30;99.90;;;;;;4239946;27;20309;-46
2020/12/11 00:07:05;;;;;;;33.40;16.83;;;5.30;99.90;;;;;;4239420;27;20271;-49
2020/12/11 00:09:06;;;;;;;34.67;17.53;;;5.30;99.90;;;;;;4239401;27;20763;-47
2020/12/11 00:11:07;;;;;;;32.47;17.70;;;5.30;99.90;;;;;;4239705;27;20271;-43
2020/12/11 00:13:08;;;;;;;30.87;16.53;;;5.30;99.90;;;;;;4239168;27;20328;-43
2020/12/11 00:15:10;;;;;;;33.10;17.30;;;5.30;99.90;;;;;;4239219;27;20282;-46
2020/12/11 00:17:11;;;;;;;31.23;17.63;;;5.30;99.90;;;;;;4239821;27;20320;-44
2020/12/11 00:19:12;;;;;;;29.20;16.40;;;5.20;99.90;;;;;;4238912;27;20275;-45
2020/12/11 00:21:14;;;;;;;30.73;16.57;;;5.20;99.90;;;;;;4239663;27;20665;-41
2020/12/11 00:23:15;;;;;;;28.80;16.13;;;5.20;99.90;;;;;;4220582;28;20372;-46
2020/12/11 00:25:16;;;;;;;26.03;15.17;;;5.20;99.90;;;;;;4238513;27;20263;-44
2020/12/11 00:27:17;;;;;;;32.30;18.00;;;5.20;99.90;;;;;;4239275;27;20915;-49
2020/12/11 00:29:19;;;;;;;30.20;17.90;;;5.20;99.90;;;;;;4238285;27;20275;-41
2020/12/11 00:31:24;;;;;;;29.63;15.97;;;5.20;99.90;;;;;;4239702;27;20272;-43
2020/12/11 00:33:26;;;;;;;33.70;17.83;;;5.20;99.90;;;;;;4239175;27;20267;-46
2020/12/11 00:35:27;;;;;;;31.97;16.07;;;5.20;99.90;;;;;;4238990;27;21001;-49
2020/12/11 00:37:29;;;;;;;31.20;16.83;;;5.20;99.90;;;;;;4239750;27;20267;-44
2020/12/11 00:39:30;;;;;;;30.63;17.23;;;5.20;99.90;;;;;;4238074;27;20673;-47
2020/12/11 00:41:31;;;;;;;30.30;16.83;;;5.30;99.90;;;;;;4239154;27;20279;-45
2020/12/11 00:43:33;;;;;;;29.23;17.17;;;5.30;99.90;;;;;;4238143;27;20842;-45
2020/12/11 00:45:35;;;;;;;30.77;17.03;;;5.20;99.90;;;;;;4238880;27;20259;-44
2020/12/11 00:47:36;;;;;;;33.03;18.23;;;5.20;99.90;;;;;;4238203;27;20263;-46
2020/12/11 00:49:38;;;;;;;35.73;18.67;;;5.30;99.90;;;;;;4239118;27;20259;-49
2020/12/11 00:51:39;;;;;;;35.93;20.13;;;5.30;99.90;;;;;;4220354;28;20325;-53
2020/12/11 00:53:40;;;;;;;35.00;20.07;;;5.30;99.90;;;;;;4238639;27;20256;-43
2020/12/11 00:55:41;;;;;;;35.03;19.47;;;5.30;99.90;;;;;;4238235;27;20268;-49
2020/12/11 00:57:46;;;;;;;30.90;17.80;;;5.30;99.90;;;;;;4239844;27;20263;-51
2020/12/11 00:59:47;;;;;;;33.63;19.33;;;5.20;99.90;;;;;;4238143;27;20295;-44
2020/12/11 01:01:48;;;;;;;33.60;20.13;;;5.20;99.90;;;;;;4238013;27;20279;-47
2020/12/11 01:03:49;;;;;;;31.30;18.20;;;5.20;99.90;;;;;;4238410;27;20287;-44
2020/12/11 01:05:50;;;;;;;31.00;17.37;;;5.10;99.90;;;;;;4238244;28;20272;-48
2020/12/11 01:07:51;;;;;;;30.17;17.43;;;5.10;99.90;;;;;;4238607;28;20344;-50
2020/12/11 01:09:54;;;;;;;32.47;18.33;;;5.10;99.90;;;;;;4238655;27;20279;-44
2020/12/11 01:11:55;;;;;;;35.13;18.20;;;5.10;99.90;;;;;;4237364;28;20275;-47
2020/12/11 01:13:56;;;;;;;32.67;18.00;;;5.10;99.90;;;;;;4239424;28;20654;-43
2020/12/11 01:15:57;;;;;;;31.37;17.37;;;5.20;99.90;;;;;;4239517;28;20279;-47
2020/12/11 01:17:58;;;;;;;32.50;18.60;;;5.20;99.90;;;;;;4238296;28;20774;-46
2020/12/11 01:20:00;;;;;;;36.00;18.57;;;5.20;99.90;;;;;;4237712;28;20287;-47
2020/12/11 01:22:04;;;;;;;28.77;16.70;;;5.20;99.90;;;;;;4219917;28;20325;-50
2020/12/11 01:24:05;;;;;;;31.93;18.20;;;5.30;99.90;;;;;;4239358;28;20332;-45
2020/12/11 01:26:07;;;;;;;27.83;16.73;;;5.20;99.90;;;;;;4237985;28;20294;-47
2020/12/11 01:28:08;;;;;;;29.93;17.50;;;5.30;99.90;;;;;;4239023;28;20264;-47
2020/12/11 01:30:09;;;;;;;33.77;18.63;;;5.30;99.90;;;;;;4239277;28;20313;-45
2020/12/11 01:32:11;;;;;;;34.67;19.43;;;5.30;99.90;;;;;;4239368;28;20731;-45
2020/12/11 01:34:12;;;;;;;35.50;18.33;;;5.30;99.90;;;;;;4237547;28;20287;-48
2020/12/11 01:36:13;;;;;;;31.93;19.13;;;5.30;99.90;;;;;;4238566;28;20320;-52
2020/12/11 01:38:14;;;;;;;34.47;18.73;;;5.30;99.90;;;;;;4239193;28;20267;-46
2020/12/11 01:40:15;;;;;;;32.47;19.23;;;5.20;99.90;;;;;;4238270;28;20279;-43
2020/12/11 01:42:16;;;;;;;31.40;17.83;;;5.20;99.90;;;;;;4238254;28;20275;-45
2020/12/11 01:44:17;;;;;;;32.97;18.87;;;5.20;99.90;;;;;;4238659;28;20356;-43
2020/12/11 01:46:20;;;;;;;32.33;18.23;;;5.20;99.90;;;;;;4239125;27;20371;-50
2020/12/11 01:48:22;;;;;;;32.80;18.47;;;5.20;99.90;;;;;;4244242;27;20343;-45
2020/12/11 01:50:23;;;;;;;30.43;17.67;;;5.10;99.90;;;;;;4255374;27;20271;-47
2020/12/11 01:52:25;;;;;;;34.73;19.40;;;5.20;99.90;;;;;;4244491;27;20279;-45
2020/12/11 01:54:26;;;;;;;30.47;18.90;;;5.20;99.90;;;;;;4237902;28;20356;-46
2020/12/11 01:56:31;;;;;;;30.47;16.47;;;5.20;99.90;;;;;;4238346;28;20613;-52
2020/12/11 01:58:37;;;;;;;31.40;16.83;;;5.10;99.90;;;;;;4237890;28;20332;-44
2020/12/11 02:00:41;;;;;;;28.50;16.30;;;5.20;99.90;;;;;;4237592;28;20348;-40
2020/12/11 02:02:45;;;;;;;27.40;16.37;;;5.20;99.90;;;;;;4238336;28;20283;-54
2020/12/11 02:04:48;;;;;;;29.57;16.60;;;5.20;99.90;;;;;;4238458;28;20255;-46
2020/12/11 02:06:50;;;;;;;28.90;17.17;;;5.20;99.90;;;;;;4238463;28;20822;-46
2020/12/11 02:08:56;;;;;;;29.33;15.73;;;5.20;99.90;;;;;;4237760;28;20283;-49
2020/12/11 02:10:57;;;;;;;29.80;15.63;;;5.20;99.90;;;;;;4238681;28;20267;-46
2020/12/11 02:13:08;;;;;;;25.53;15.47;;;5.20;99.90;;;;;;4238821;28;20272;-47
2020/12/11 02:15:09;;;;;;;28.05;15.60;;;5.20;99.90;;;;;;4237908;28;20271;-49
2020/12/11 02:17:10;;;;;;;25.87;16.07;;;5.30;99.90;;;;;;4237430;28;20035;-43
2020/12/11 02:19:12;;;;;;;28.33;16.50;;;5.20;99.90;;;;;;4237979;28;20330;-47
2020/12/11 02:21:14;;;;;;;28.00;16.43;;;5.20;99.90;;;;;;4239799;27;20263;-43
2020/12/11 02:23:15;;;;;;;30.53;17.27;;;5.20;99.90;;;;;;4240430;27;20291;-42
2020/12/11 02:25:16;;;;;;;22.53;14.37;;;5.30;99.90;;;;;;4240748;27;20279;-42
2020/12/11 02:27:18;;;;;;;29.60;16.23;;;5.20;99.90;;;;;;4242020;27;20260;-45
2020/12/11 02:29:19;;;;;;;30.53;17.83;;;5.20;99.90;;;;;;4223223;28;20256;-44
2020/12/11 02:31:20;;;;;;;27.60;16.97;;;5.20;99.90;;;;;;4241470;27;20300;-55
2020/12/11 02:33:21;;;;;;;23.67;15.17;;;5.20;99.90;;;;;;4241928;27;20296;-44
2020/12/11 02:35:22;;;;;;;27.73;14.97;;;5.20;99.90;;;;;;4240596;27;20317;-45
2020/12/11 02:37:23;;;;;;;22.70;14.47;;;5.20;99.90;;;;;;4240511;27;20251;-44
2020/12/11 02:39:24;;;;;;;21.37;14.27;;;5.20;99.90;;;;;;4239999;27;20333;-46
2020/12/11 02:41:25;;;;;;;21.03;13.27;;;5.20;99.90;;;;;;4240735;27;20275;-47
2020/12/11 02:43:27;;;;;;;22.53;13.63;;;5.20;99.90;;;;;;4241111;27;20894;-44
2020/12/11 02:45:29;;;;;;;22.67;12.87;;;5.30;99.90;;;;;;4241512;27;20260;-44
2020/12/11 02:47:32;;;;;;;21.53;13.13;;;5.30;99.90;;;;;;4240581;27;20308;-44
2020/12/11 02:49:33;;;;;;;19.47;11.80;;;5.30;99.90;;;;;;4240475;27;20320;-44
2020/12/11 02:51:35;;;;;;;19.63;11.10;;;5.30;99.90;;;;;;4240437;27;20272;-48
2020/12/11 02:53:36;;;;;;;16.10;10.30;;;5.30;99.90;;;;;;4240077;27;20343;-47
2020/12/11 02:55:37;;;;;;;18.47;11.03;;;5.30;99.90;;;;;;4240442;27;20348;-50
2020/12/11 02:57:38;;;;;;;17.07;10.80;;;5.30;99.90;;;;;;4241641;27;20414;-46
2020/12/11 02:59:39;;;;;;;17.13;11.07;;;5.20;99.90;;;;;;4239916;27;20864;-45
2020/12/11 03:01:40;;;;;;;18.63;11.33;;;5.20;99.90;;;;;;4240024;27;20272;-43
2020/12/11 03:03:42;;;;;;;17.47;11.50;;;5.20;99.90;;;;;;4241438;27;20295;-47
2020/12/11 03:05:43;;;;;;;21.03;12.33;;;5.20;99.90;;;;;;4240794;27;20263;-46
2020/12/11 03:07:44;;;;;;;25.37;14.03;;;5.30;99.90;;;;;;4240479;27;20267;-48
2020/12/11 03:09:45;;;;;;;21.90;12.77;;;5.30;99.90;;;;;;4240547;27;20267;-45
2020/12/11 03:11:46;;;;;;;24.47;14.90;;;5.30;99.90;;;;;;4240622;27;20317;-48
2020/12/11 03:13:47;;;;;;;21.80;13.80;;;5.30;99.90;;;;;;4239856;27;20316;-47
2020/12/11 03:15:48;;;;;;;22.67;13.03;;;5.30;99.90;;;;;;4241010;27;20332;-50
2020/12/11 03:17:49;;;;;;;19.83;12.57;;;5.30;99.90;;;;;;4239718;27;20755;-48
2020/12/11 03:19:51;;;;;;;20.03;12.77;;;5.30;99.90;;;;;;4241141;27;20072;-52
2020/12/11 03:21:52;;;;;;;21.57;13.23;;;5.40;99.90;;;;;;4240127;27;21274;-48
2020/12/11 03:23:53;;;;;;;24.33;13.47;;;5.40;99.90;;;;;;4239675;27;20107;-52
2020/12/11 03:25:54;;;;;;;19.03;12.20;;;5.30;99.90;;;;;;4240824;27;20635;-43
2020/12/11 03:27:55;;;;;;;18.73;13.03;;;5.30;99.90;;;;;;4240388;27;20415;-44
2020/12/11 03:29:56;;;;;;;18.00;11.27;;;5.30;99.90;;;;;;4240175;27;20352;-49
2020/12/11 03:31:57;;;;;;;19.23;11.67;;;5.30;99.90;;;;;;4239121;27;20347;-47
2020/12/11 03:33:58;;;;;;;16.20;9.90;;;5.30;99.90;;;;;;4239411;27;21113;-56
2020/12/11 03:35:59;;;;;;;20.27;11.60;;;5.30;99.90;;;;;;4239647;27;20260;-44
2020/12/11 03:38:01;;;;;;;18.00;10.63;;;5.30;99.90;;;;;;4240717;27;20268;-52
2020/12/11 03:40:03;;;;;;;19.73;11.80;;;5.30;99.90;;;;;;4239511;27;20320;-44
2020/12/11 03:42:04;;;;;;;14.80;10.73;;;5.30;99.90;;;;;;4239453;27;20039;-55
2020/12/11 03:44:06;;;;;;;19.33;10.70;;;5.30;99.90;;;;;;4239508;27;20697;-50
2020/12/11 03:46:07;;;;;;;17.67;10.40;;;5.30;99.90;;;;;;4240001;27;20320;-46
2020/12/11 03:48:08;;;;;;;15.00;9.57;;;5.30;99.90;;;;;;4240174;27;20342;-46
2020/12/11 03:50:09;;;;;;;13.73;9.17;;;5.30;99.90;;;;;;4239006;27;20267;-47
2020/12/11 03:52:10;;;;;;;16.27;10.10;;;5.30;99.90;;;;;;4239166;27;20263;-47
2020/12/11 03:54:11;;;;;;;17.37;11.60;;;5.30;99.90;;;;;;4239062;27;20271;-47
2020/12/11 03:56:16;;;;;;;15.43;10.00;;;5.30;99.90;;;;;;4239553;27;20313;-44
2020/12/11 03:58:17;;;;;;;18.37;9.50;;;5.30;99.90;;;;;;4240677;27;20255;-49
2020/12/11 04:00:20;;;;;;;16.60;10.97;;;5.30;99.90;;;;;;4238853;27;20279;-49
2020/12/11 04:02:21;;;;;;;17.37;11.00;;;5.30;99.90;;;;;;4240224;27;20255;-52
2020/12/11 04:04:22;;;;;;;17.20;10.43;;;5.30;99.90;;;;;;4239369;27;20291;-48
2020/12/11 04:06:24;;;;;;;15.67;9.53;;;5.30;99.90;;;;;;4239648;27;20271;-48
2020/12/11 04:08:25;;;;;;;17.77;9.40;;;5.20;99.90;;;;;;4238456;27;20336;-47
2020/12/11 04:10:26;;;;;;;16.50;9.83;;;5.30;99.90;;;;;;4239190;27;20314;-46
2020/12/11 04:12:27;;;;;;;14.30;9.47;;;5.30;99.90;;;;;;4239808;27;20324;-43
2020/12/11 04:14:29;;;;;;;14.90;9.63;;;5.30;99.90;;;;;;4239066;27;20752;-48
2020/12/11 04:16:30;;;;;;;19.27;11.00;;;5.30;99.90;;;;;;4239765;27;20316;-42
2020/12/11 04:18:32;;;;;;;17.43;9.90;;;5.20;99.90;;;;;;4239987;27;20312;-42
2020/12/11 04:20:33;;;;;;;19.33;10.40;;;5.20;99.90;;;;;;4239188;27;20312;-48
2020/12/11 04:22:34;;;;;;;21.77;11.10;;;5.30;99.90;;;;;;4238705;27;20275;-46
2020/12/11 04:24:35;;;;;;;18.53;10.47;;;5.30;99.90;;;;;;4239082;27;20677;-54
2020/12/11 04:26:36;;;;;;;16.83;9.93;;;5.30;99.90;;;;;;4238739;27;21135;-45
2020/12/11 04:28:37;;;;;;;18.40;9.97;;;5.30;99.90;;;;;;4239645;27;20267;-49
2020/12/11 04:30:38;;;;;;;15.60;8.73;;;5.30;99.90;;;;;;4239965;27;20811;-46
2020/12/11 04:32:39;;;;;;;14.83;8.87;;;5.20;99.90;;;;;;4238809;27;20271;-48
2020/12/11 04:34:41;;;;;;;16.77;9.97;;;5.20;99.90;;;;;;4238586;27;20339;-43
2020/12/11 04:36:42;;;;;;;15.03;9.13;;;5.20;99.90;;;;;;4238274;27;20324;-49
2020/12/11 04:38:44;;;;;;;16.73;9.43;;;5.20;99.90;;;;;;4238670;27;20280;-51
2020/12/11 04:40:45;;;;;;;18.30;9.93;;;5.20;99.90;;;;;;4239064;27;20267;-45
2020/12/11 04:42:47;;;;;;;18.00;9.57;;;5.20;99.90;;;;;;4238422;27;20264;-48
2020/12/11 04:44:48;;;;;;;16.40;9.37;;;5.20;99.90;;;;;;4238855;27;20291;-50
2020/12/11 04:46:50;;;;;;;15.50;9.47;;;5.20;99.90;;;;;;4238931;27;20282;-44
2020/12/11 04:48:51;;;;;;;14.87;9.77;;;5.20;99.90;;;;;;4239833;27;20275;-49
2020/12/11 04:50:54;;;;;;;15.70;8.83;;;5.20;99.90;;;;;;4222369;28;20650;-52
2020/12/11 04:52:57;;;;;;;13.23;9.17;;;5.20;99.90;;;;;;4221389;28;20313;-46
2020/12/11 04:54:59;;;;;;;14.77;9.83;;;5.20;99.90;;;;;;4221067;28;20263;-46
2020/12/11 04:57:00;;;;;;;18.20;10.43;;;5.20;99.90;;;;;;4221825;28;20272;-51
2020/12/11 04:59:02;;;;;;;19.73;9.63;;;5.20;99.90;;;;;;4221831;28;20268;-46
2020/12/11 05:01:05;;;;;;;15.47;9.13;;;5.20;99.90;;;;;;4221380;28;20264;-46
2020/12/11 05:03:09;;;;;;;15.60;9.23;;;5.20;99.90;;;;;;4230640;27;20340;-49
2020/12/11 05:05:11;;;;;;;15.07;9.20;;;5.20;99.90;;;;;;4238326;27;20291;-48
2020/12/11 05:07:12;;;;;;;16.20;8.80;;;5.20;99.90;;;;;;4238218;28;20908;-47
2020/12/11 05:09:20;;;;;;;15.37;9.07;;;5.20;99.90;;;;;;4238234;28;20271;-50
2020/12/11 05:11:27;;;;;;;15.53;8.83;;;5.20;99.90;;;;;;4237958;28;20272;-46
2020/12/11 05:13:29;;;;;;;20.00;10.13;;;5.20;99.90;;;;;;4220479;28;20272;-46
2020/12/11 05:15:30;;;;;;;18.10;10.33;;;5.20;99.90;;;;;;4237781;28;20279;-46
2020/12/11 05:17:36;;;;;;;17.53;10.60;;;5.30;99.90;;;;;;4238068;28;20267;-44
2020/12/11 05:19:51;;;;;;;20.37;10.77;;;5.20;99.90;;;;;;4237345;28;20773;-52
2020/12/11 05:21:53;;;;;;;21.57;11.90;;;5.30;99.90;;;;;;4237716;28;20272;-43
2020/12/11 05:23:58;;;;;;;21.00;10.60;;;5.30;99.90;;;;;;4237583;28;20356;-45
2020/12/11 05:26:17;;;;;;;20.50;10.40;;;5.30;99.90;;;;;;4237662;28;20386;-55
2020/12/11 05:28:19;;;;;;;17.10;10.20;;;5.30;99.90;;;;;;4237493;28;20287;-42
2020/12/11 05:30:22;;;;;;;17.73;9.53;;;5.30;99.90;;;;;;4238259;28;20328;-51
2020/12/11 05:32:58;;;;;;;18.90;10.27;;;5.30;99.90;;;;;;4238056;28;20677;-44
2020/12/11 05:34:59;;;;;;;18.33;10.67;;;5.30;99.90;;;;;;4238282;28;20328;-44
2020/12/11 05:37:01;;;;;;;16.67;10.77;;;5.30;99.90;;;;;;4237842;28;20302;-47
2020/12/11 05:39:02;;;;;;;16.53;10.87;;;5.30;99.90;;;;;;4238469;28;20320;-45
2020/12/11 05:41:03;;;;;;;21.43;10.73;;;5.30;99.90;;;;;;4238351;28;20751;-47
2020/12/11 05:43:17;;;;;;;22.07;10.30;;;5.30;99.90;;;;;;4237798;28;20284;-44
2020/12/11 05:45:19;;;;;;;16.90;9.37;;;5.30;99.90;;;;;;4236867;28;20299;-46
2020/12/11 05:47:25;;;;;;;16.33;9.60;;;5.20;99.90;;;;;;4238630;28;20305;-48
2020/12/11 05:49:30;;;;;;;16.00;8.97;;;5.20;99.90;;;;;;4238367;28;20265;-44
2020/12/11 05:51:37;;;;;;;15.87;9.20;;;5.20;99.90;;;;;;4237669;28;20735;-47
2020/12/11 05:53:39;;;;;;;17.07;8.90;;;5.20;99.90;;;;;;4237666;28;20336;-52
2020/12/11 05:55:40;;;;;;;17.10;8.57;;;5.20;99.90;;;;;;4240004;27;20267;-48
2020/12/11 05:57:42;;;;;;;18.47;11.10;;;5.20;99.90;;;;;;4241503;27;20624;-52
2020/12/11 05:59:44;;;;;;;17.13;9.80;;;5.20;99.90;;;;;;4239655;27;20283;-44
2020/12/11 06:01:48;;;;;;;16.87;9.93;;;5.20;99.90;;;;;;4239905;27;20904;-44
2020/12/11 06:03:50;;;;;;;14.97;8.63;;;5.20;99.90;;;;;;4240672;27;20279;-45
2020/12/11 06:05:56;;;;;;;25.67;11.43;;;5.20;99.90;;;;;;4239849;27;20268;-43
2020/12/11 06:08:00;;;;;;;15.33;8.03;;;5.20;99.90;;;;;;4241487;27;20822;-47
2020/12/11 06:10:04;;;;;;;13.03;7.87;;;5.10;99.90;;;;;;4240129;27;20355;-46
2020/12/11 06:12:07;;;;;;;11.37;6.87;;;5.20;99.90;;;;;;4239530;27;20371;-45
2020/12/11 06:14:16;;;;;;;10.87;6.90;;;5.20;99.90;;;;;;4240104;27;20287;-47
2020/12/11 06:16:20;;;;;;;13.07;7.10;;;5.20;99.90;;;;;;4239882;27;20344;-43
2020/12/11 06:18:25;;;;;;;11.73;7.07;;;5.20;99.90;;;;;;4241308;27;20321;-40
2020/12/11 06:20:28;;;;;;;11.57;7.00;;;5.20;99.90;;;;;;4239749;27;20328;-48
2020/12/11 06:22:29;;;;;;;11.27;6.83;;;5.20;99.90;;;;;;4240681;27;20312;-42
2020/12/11 06:24:31;;;;;;;12.87;7.53;;;5.20;99.90;;;;;;4240495;27;20343;-42
2020/12/11 06:26:32;;;;;;;15.30;7.27;;;5.20;99.90;;;;;;4239587;27;20280;-54
2020/12/11 06:28:39;;;;;;;14.93;7.80;;;5.20;99.90;;;;;;4239904;27;20280;-46
2020/12/11 06:30:40;;;;;;;14.33;7.10;;;5.20;99.90;;;;;;4240677;27;20279;-53
2020/12/11 06:32:43;;;;;;;13.30;7.93;;;5.20;99.90;;;;;;4241224;27;21201;-53
2020/12/11 06:34:44;;;;;;;13.80;7.07;;;5.20;99.90;;;;;;4240261;27;20285;-49
2020/12/11 06:36:45;;;;;;;18.43;8.63;;;5.20;99.90;;;;;;4239446;27;20047;-56
2020/12/11 06:38:58;;;;;;;13.83;7.60;;;5.20;99.90;;;;;;4240328;27;20344;-46
2020/12/11 06:40:59;;;;;;;16.03;7.93;;;5.20;99.90;;;;;;4240480;27;20287;-53
2020/12/11 06:43:00;;;;;;;15.37;8.20;;;5.20;99.90;;;;;;4241402;27;20279;-54
2020/12/11 06:45:23;;;;;;;13.20;8.33;;;5.20;99.90;;;;;;4239523;27;20428;-56
2020/12/11 06:47:29;;;;;;;13.37;7.33;;;5.20;99.90;;;;;;4240072;27;20720;-55
2020/12/11 06:49:30;;;;;;;13.47;8.17;;;5.20;99.90;;;;;;4241325;27;20316;-54
2020/12/11 06:51:32;;;;;;;10.70;6.67;;;5.20;99.90;;;;;;4240397;27;20312;-52
2020/12/11 06:53:40;;;;;;;12.53;7.70;;;5.30;99.90;;;;;;4240271;27;20324;-56
2020/12/11 06:55:51;;;;;;;10.00;6.40;;;5.30;99.90;;;;;;4240641;27;20275;-50
2020/12/11 06:57:52;;;;;;;10.65;6.65;;;5.30;99.90;;;;;;4239360;27;20329;-48
2020/12/11 06:59:53;;;;;;;15.83;8.33;;;5.30;99.90;;;;;;4240757;27;20096;-50
2020/12/11 07:02:17;;;;;;;53.57;22.93;;;5.30;99.90;;;;;;4240030;27;20259;-46
2020/12/11 07:04:18;;;;;;;18.23;10.17;;;5.30;99.90;;;;;;4240681;27;20336;-50
2020/12/11 07:06:21;;;;;;;14.20;7.90;;;5.30;99.90;;;;;;4239297;27;20294;-59
2020/12/11 07:08:22;;;;;;;14.13;7.70;;;5.30;99.90;;;;;;4239475;27;20677;-48
2020/12/11 07:10:26;;;;;;;17.53;8.63;;;5.20;99.90;;;;;;4240657;27;20267;-52
2020/12/11 07:12:32;;;;;;;14.53;8.43;;;5.20;99.90;;;;;;4240695;27;20291;-43
2020/12/11 07:14:33;;;;;;;16.10;9.33;;;5.30;99.90;;;;;;4240943;27;20268;-43
2020/12/11 07:16:42;;;;;;;12.63;7.40;;;5.30;99.90;;;;;;4240427;27;20739;-56
2020/12/11 07:18:44;;;;;;;17.93;9.63;;;5.30;99.90;;;;;;4238733;27;20356;-45
2020/12/11 07:20:53;;;;;;;23.63;12.97;;;5.30;99.90;;;;;;4239690;27;20313;-53
2020/12/11 07:22:59;;;;;;;16.87;10.07;;;5.30;99.90;;;;;;4239785;27;20332;-50
2020/12/11 07:25:00;;;;;;;20.90;11.13;;;5.30;99.90;;;;;;4239708;27;20843;-42
2020/12/11 07:27:03;;;;;;;19.80;9.43;;;5.40;99.90;;;;;;4239459;27;20284;-41
2020/12/11 07:29:05;;;;;;;17.87;9.43;;;5.40;99.90;;;;;;4239155;27;20263;-51
2020/12/11 07:31:11;;;;;;;17.30;9.13;;;5.40;99.90;;;;;;4239875;27;20324;-40
2020/12/11 07:33:13;;;;;;;17.57;10.27;;;5.40;99.90;;;;;;4238638;27;20287;-41
2020/12/11 07:35:14;;;;;;;19.30;10.93;;;5.50;99.90;;;;;;4239118;27;20275;-41
2020/12/11 07:37:15;;;;;;;18.97;11.33;;;5.50;99.90;;;;;;4239537;27;20279;-45
2020/12/11 07:39:18;;;;;;;21.33;10.90;;;5.50;99.90;;;;;;4238613;27;20697;-45
2020/12/11 07:41:20;;;;;;;20.43;11.63;;;5.50;99.90;;;;;;4239845;27;20264;-44
2020/12/11 07:43:22;;;;;;;16.23;10.13;;;5.50;99.90;;;;;;4239543;27;21049;-49
2020/12/11 07:45:33;;;;;;;20.80;10.23;;;5.60;99.90;;;;;;4238993;27;20430;-49
2020/12/11 07:47:34;;;;;;;20.97;11.67;;;5.60;99.90;;;;;;4239051;27;20720;-47
2020/12/11 07:49:37;;;;;;;20.90;12.20;;;5.60;99.90;;;;;;4239446;27;20700;-47
2020/12/11 07:51:48;;;;;;;18.23;10.93;;;5.50;99.90;;;;;;4239124;27;20462;-47
2020/12/11 07:53:53;;;;;;;27.47;15.33;;;5.50;99.90;;;;;;4238916;27;20328;-48
2020/12/11 07:55:54;;;;;;;32.37;19.00;;;5.50;99.90;;;;;;4245989;27;20095;-42
2020/12/11 07:57:57;;;;;;;29.83;16.67;;;5.50;99.90;;;;;;4257331;27;20282;-50
2020/12/11 08:00:09;;;;;;;24.20;13.73;;;5.60;99.90;;;;;;4249057;27;20279;-47
2020/12/11 08:02:12;;;;;;;27.43;16.60;;;5.50;99.90;;;;;;4238672;27;20751;-50
2020/12/11 08:04:14;;;;;;;19.13;12.33;;;5.50;99.90;;;;;;4238237;27;20267;-52
2020/12/11 08:06:15;;;;;;;17.30;10.90;;;5.50;99.90;;;;;;4238927;27;20124;-45
2020/12/11 08:08:25;;;;;;;23.63;12.83;;;5.50;99.90;;;;;;4237770;27;20276;-46
2020/12/11 08:10:38;;;;;;;17.63;9.55;;;5.50;99.90;;;;;;4227485;27;20324;-45
2020/12/11 08:12:40;;;;;;;18.90;10.10;;;5.50;99.90;;;;;;4228352;27;20542;-52
2020/12/11 08:14:43;;;;;;;29.10;16.40;;;5.50;99.90;;;;;;4239588;27;20263;-49
2020/12/11 08:16:45;;;;;;;32.50;18.23;;;5.60;99.90;;;;;;4238601;27;20031;-45
2020/12/11 08:18:46;;;;;;;36.53;18.30;;;5.60;99.90;;;;;;4223950;27;20308;-41
2020/12/11 08:20:53;;;;;;;27.47;14.80;;;5.60;99.90;;;;;;4241150;27;20348;-47
2020/12/11 08:22:54;;;;;;;25.87;14.20;;;5.60;99.90;;;;;;4233646;27;20088;-51
2020/12/11 08:24:55;;;;;;;23.37;13.37;;;5.60;99.90;;;;;;4238373;27;20064;-51
2020/12/11 08:26:56;;;;;;;18.60;10.80;;;5.60;99.90;;;;;;4238218;27;20495;-43
2020/12/11 08:29:08;;;;;;;24.23;13.20;;;5.60;99.90;;;;;;4238153;27;20096;-41
2020/12/11 08:31:17;;;;;;;20.07;11.00;;;5.60;99.90;;;;;;4239261;27;20367;-44
2020/12/11 08:33:18;;;;;;;17.10;10.50;;;5.60;99.90;;;;;;4238655;27;21196;-50
2020/12/11 08:35:22;;;;;;;17.57;9.87;;;5.50;99.90;;;;;;4237043;27;20271;-48
2020/12/11 08:37:23;;;;;;;24.40;11.80;;;5.50;99.90;;;;;;4234769;27;20316;-41
2020/12/11 08:39:25;;;;;;;20.87;13.17;;;5.50;99.90;;;;;;4238047;27;20389;-47
2020/12/11 08:41:29;;;;;;;20.67;12.30;;;5.50;99.90;;;;;;4239203;27;20259;-44
2020/12/11 08:43:42;;;;;;;20.20;11.77;;;5.50;99.90;;;;;;4238876;27;20828;-46
2020/12/11 08:50:25;;;;;;;23.47;12.43;;;5.60;99.90;;;;;;4238531;27;20276;-43
2020/12/11 08:52:26;;;;;;;23.10;10.50;;;5.60;99.90;;;;;;4237863;27;20107;-50
2020/12/11 08:54:28;;;;;;;20.53;11.77;;;5.70;99.90;;;;;;4253750;27;20324;-42
2020/12/11 08:56:29;;;;;;;14.00;8.90;;;5.60;99.90;;;;;;4238362;27;20373;-43
2020/12/11 08:58:30;;;;;;;15.23;8.87;;;5.70;99.90;;;;;;4237432;27;20279;-46
2020/12/11 09:00:31;;;;;;;16.57;8.80;;;5.70;99.90;;;;;;4238563;27;20503;-50
2020/12/11 09:02:32;;;;;;;16.60;9.87;;;5.70;99.90;;;;;;4238189;27;20479;-51
2020/12/11 09:04:33;;;;;;;19.77;12.60;;;5.70;99.90;;;;;;4238012;27;20731;-46
2020/12/11 09:06:35;;;;;;;21.10;12.17;;;5.70;99.90;;;;;;4238448;27;20119;-47
2020/12/11 09:08:36;;;;;;;22.73;12.27;;;5.70;99.90;;;;;;4237857;27;20065;-48
2020/12/11 09:10:37;;;;;;;16.57;10.13;;;5.70;99.90;;;;;;4238952;28;20731;-51
2020/12/11 09:12:39;;;;;;;17.83;10.30;;;5.70;99.90;;;;;;4237033;28;20324;-44
2020/12/11 09:14:40;;;;;;;16.13;9.77;;;5.70;99.90;;;;;;4237934;28;20096;-47
2020/12/11 09:16:41;;;;;;;14.77;8.67;;;5.70;99.90;;;;;;4238373;28;20146;-53
2020/12/11 09:18:42;;;;;;;15.90;9.23;;;5.70;99.90;;;;;;4237831;28;20076;-49
2020/12/11 09:20:44;;;;;;;14.20;8.47;;;5.80;99.90;;;;;;4238568;28;20027;-45
2020/12/11 09:22:46;;;;;;;19.70;10.27;;;5.90;99.90;;;;;;4237361;28;20031;-44
2020/12/11 09:24:47;;;;;;;13.50;8.23;;;5.90;99.90;;;;;;4237609;28;20055;-44
2020/12/11 09:26:48;;;;;;;18.97;10.03;;;5.90;99.90;;;;;;4238337;28;20043;-44
2020/12/11 09:28:54;;;;;;;14.17;8.27;;;5.90;99.90;;;;;;4238025;28;20047;-50
2020/12/11 09:30:55;;;;;;;18.90;9.70;;;5.90;99.90;;;;;;4240699;27;20051;-43
2020/12/11 09:35:04;;;;;;;14.73;9.07;;;5.90;99.90;;;;;;4240623;27;20332;-48
2020/12/11 09:37:05;;;;;;;14.23;8.63;;;5.90;99.90;;;;;;4241522;27;20316;-41
2020/12/11 09:39:06;;;;;;;17.30;9.93;;;6.00;99.90;;;;;;4240701;27;20144;-46
2020/12/11 09:41:08;;;;;;;20.57;10.90;;;6.00;99.90;;;;;;4241395;27;20292;-41
2020/12/11 09:49:53;;;;;;;17.17;10.67;;;6.10;99.90;;;;;;4245842;27;20099;-43
2020/12/11 09:54:35;;;;;;;17.73;11.00;;;6.20;99.90;;;;;;4172215;28;20029;-47
2020/12/11 09:56:37;;;;;;;18.67;10.07;;;6.20;99.90;;;;;;4171530;28;20123;-46
2020/12/11 09:58:41;;;;;;;17.63;10.87;;;6.20;99.90;;;;;;4171306;28;20363;-38
2020/12/11 10:00:45;;;;;;;16.57;10.37;;;6.20;99.90;;;;;;4239609;27;20035;-39
2020/12/11 10:02:59;;;;;;;15.97;9.93;;;6.20;99.90;;;;;;4239137;27;20043;-38
2020/12/11 10:05:00;;;;;;;20.13;11.87;;;6.20;99.90;;;;;;4239846;27;20460;-45
2020/12/11 10:07:02;;;;;;;21.40;11.53;;;6.20;99.90;;;;;;4240536;27;20042;-45
2020/12/11 10:09:03;;;;;;;20.30;12.07;;;6.20;99.90;;;;;;4240473;27;20080;-47
2020/12/11 10:11:04;;;;;;;19.93;11.60;;;6.20;99.90;;;;;;4222954;28;20043;-43
2020/12/11 10:13:06;;;;;;;23.33;13.23;;;6.20;99.90;;;;;;4239711;27;20043;-46
2020/12/11 10:15:09;;;;;;;26.20;13.07;;;6.20;99.90;;;;;;4240559;27;20076;-42
2020/12/11 10:17:11;;;;;;;24.80;12.87;;;6.20;99.90;;;;;;4244061;27;20047;-41
2020/12/11 10:19:12;;;;;;;24.27;12.67;;;6.20;99.90;;;;;;4239549;27;20330;-50
2020/12/11 10:21:13;;;;;;;24.17;12.27;;;6.30;99.90;;;;;;4248407;27;20046;-45
2020/12/11 10:23:14;;;;;;;17.20;10.57;;;6.20;99.90;;;;;;4241418;27;20042;-43
2020/12/11 10:25:19;;;;;;;20.67;10.00;;;6.20;99.90;;;;;;4240146;27;20091;-50
2020/12/11 10:27:20;;;;;;;15.67;9.73;;;6.20;99.90;;;;;;4240634;27;20491;-54
2020/12/11 10:29:22;;;;;;;20.10;11.03;;;6.20;99.90;;;;;;4240161;27;20087;-52
2020/12/11 10:31:29;;;;;;;20.90;10.10;;;6.20;99.90;;;;;;4239339;27;20558;-47
2020/12/11 10:33:31;;;;;;;23.90;12.13;;;6.20;99.90;;;;;;4240568;27;20022;-44
2020/12/11 10:35:32;;;;;;;15.57;9.60;;;6.20;99.90;;;;;;4240141;27;20027;-46
2020/12/11 10:37:34;;;;;;;13.67;7.10;;;6.20;99.90;;;;;;4235417;27;20061;-46
2020/12/11 10:39:35;;;;;;;10.17;6.23;;;6.20;99.90;;;;;;4250113;27;20067;-45
2020/12/11 10:41:36;;;;;;;13.13;7.10;;;6.30;99.90;;;;;;4239772;27;20917;-55
2020/12/11 10:43:38;;;;;;;11.73;6.37;;;6.30;99.90;;;;;;4228348;27;20047;-47
2020/12/11 10:45:39;;;;;;;16.17;8.60;;;6.30;99.90;;;;;;4238446;27;20154;-45
2020/12/11 10:47:40;;;;;;;25.67;14.47;;;6.40;99.90;;;;;;4240393;27;20451;-48
2020/12/11 10:49:41;;;;;;;14.23;10.10;;;6.40;99.90;;;;;;4239484;27;20031;-43